St Cloud Regional Airport
KSTC : now visible

Airfield :











YOU CAN JOIN US ON...

 
LOGIN :

Register | Disclaimer

   EN    FR    IT 

 









Legend :    VFR   Marginal VFR   IFR   Intensive IFR   Very Intensive IFR
Visi :
Ceiling :
>= 8 km
>= 3000ft
5 to 8 km
1000 to 3000 ft
1500m to 5 km
500 to 1000 ft
800 to 1500m
200 to 500 ft
< 800m
< 200 ft
Symbols :   Thunderstorms  Fog  Heavy snow  Heavy precipitations  Wind > 20 kt






- Airport Elevation : 1031 ft
- IATA code : STC


KSTC - St Cloud Regional

CURRENT METAR :
  • 251553Z 23007KT 10SM CLR M03/M07 A3027 RMK AO2 SLP275 T10281067

EXPIRED METARs :
  • 251453Z 26007KT 10SM CLR M05/M07 A3029 RMK AO2 SLP280 I3001 T10501072 53008
  • 251353Z 25006KT 6SM BR CLR M08/M09 A3027 RMK AO2 SLP278 T10781094

TAF KSTC
Valid from the 25 at 12:00 until the 26 at 12:00 UTC


251129Z 2512/2612 27007KT P6SM SKC
FM251600 25011KT P6SM SKC
FM252300 22009KT P6SM SKC
FM260500 19012KT P6SM FEW200
KZMP FIR / North America



MET'MAP, your aeronautical weather chart ! - Copyright ORBIFLY December 2007 - Disclaimer

ORBIFLY MET'MAP TEAM :

Programming & Development : Alexandra Zaïnal
Concept & original design : Baudouin d'Aumeries
Assistance for programming : Marc-Olivier Méhu
Technical & hardware support : Manuel Goepfert

Contact : metmap@orbifly.com




SOURCES & CREDITS :

   NOAA       Earth
Advisory